• Join FlightAware (Why Join?)
  • Login
  • US Flag 
06:57AM EST


 

Airport Tracker/Info


-or-


 

Live Flight TrackerFlight Track Log ✈ N4978T ✈ 02-Jul-2013 ✈ KSMO - KCRQ

Flight Track Log - Related Links

Times and Time Zones

All times are in EDT time to prevent confusion due to time zone crossing. See the N4978T flight status page for this flight to view local times or setup timezone preferences in your user account.

Time Position Orientation Groundspeed Altitude Reporting Facility
EDT Latitude Longitude Course Direction KTS MPH feet Rate Location/Type
04:04PM 34.0167 -118.4667 270° West 137 158 800  Level Southern California TRACON
04:05PM 34.0167 -118.4833 270° West 102 117 1,600 840 Climbing Southern California TRACON
04:06PM 34.0167 -118.5167 270° West 95 109 2,400 720 Climbing Southern California TRACON
04:07PM 34.0086 -118.5333 240° Southwest 91 105 2,700 540 Climbing Los Angeles Center
04:08PM 34.0086 -118.5628 270° West 90 104 3,300 540 Climbing Los Angeles Center
04:09PM 34.0233 -118.5519 31° Northeast 89 102 3,900 420 Climbing Los Angeles Center
04:10PM 34.0186 -118.5194 100° East 98 113 4,200 300 Climbing Los Angeles Center
04:11PM 34.0125 -118.4803 101° East 118 136 4,600 360 Climbing Los Angeles Center
04:12PM 33.9936 -118.4519 129° Southeast 114 131 5,000 240 Climbing Los Angeles Center
04:13PM 33.9681 -118.4283 143° Southeast 111 128 5,100  Climbing Los Angeles Center
04:14PM 33.9319 -118.4075 154° Southeast 132 152 5,100  Level Los Angeles Center
04:15PM 33.8931 -118.3917 161° South 141 162 5,100  Level Los Angeles Center
04:16PM 33.8556 -118.3761 161° South 144 166 5,100  Level Los Angeles Center
04:17PM 33.8192 -118.3597 159° South 142 163 5,100  Level Los Angeles Center
04:18PM 33.7750 -118.3350 155° Southeast 143 165 5,100  Level Los Angeles Center
04:19PM 33.7594 -118.2847 110° East 151 174 5,100  Level Los Angeles Center
04:20PM 33.7481 -118.2369 106° East 153 176 5,100 60 Level Los Angeles Center
04:21PM 33.7567 -118.1903 77° East 145 167 5,300 240 Climbing Los Angeles Center
04:22PM 33.7653 -118.1447 77° East 143 165 5,600 240 Climbing Los Angeles Center
04:23PM 33.7742 -118.0994 77° East 141 162 5,800 240 Climbing Los Angeles Center
04:24PM 33.7833 -118.0500 77° East 135 155 6,200 120 Climbing Southern California TRACON
04:25PM 33.7500 -118.0167 140° Southeast 162 186 6,100 -60 Descending Southern California TRACON
04:26PM 33.7167 -117.9833 140° Southeast 153 176 6,100 -60 Level Southern California TRACON
04:27PM 33.6833 -117.9500 140° Southeast 158 182 6,000 -60 Descending Southern California TRACON
04:28PM 33.6667 -117.9167 121° Southeast 157 181 6,000  Level Southern California TRACON
04:29PM 33.6333 -117.8833 140° Southeast 156 180 6,100  Climbing Southern California TRACON
04:30PM 33.6000 -117.8333 129° Southeast 157 181 6,000 -240 Descending Southern California TRACON
04:31PM 33.5667 -117.8000 140° Southeast 167 192 5,700 -300 Descending Southern California TRACON
04:32PM 33.5333 -117.7667 140° Southeast 162 186 5,500 -240 Descending Southern California TRACON
04:33PM 33.5000 -117.7333 140° Southeast 161 185 5,300 -300 Descending Southern California TRACON
04:34PM 33.4667 -117.6833 129° Southeast 163 188 5,000 -120 Descending Southern California TRACON
04:35PM 33.4333 -117.6500 140° Southeast 154 177 5,100  Climbing Southern California TRACON
04:36PM 33.4167 -117.6167 121° Southeast 151 174 5,000 -120 Descending Southern California TRACON
04:37PM 33.3969 -117.5994 144° Southeast 153 176 5,000 60 Level Los Angeles Center
04:38PM 33.3672 -117.5644 135° Southeast 151 174 5,100  Climbing Los Angeles Center
04:39PM 33.3367 -117.5281 135° Southeast 153 176 5,100  Level Los Angeles Center
04:40PM 33.2994 -117.4853 136° Southeast 154 177 5,100  Level Los Angeles Center
04:41PM 33.2689 -117.4492 135° Southeast 154 177 5,100  Level Los Angeles Center
04:42PM 33.2475 -117.4067 121° Southeast 152 175 5,100 -60 Level Los Angeles Center
04:43PM 33.2347 -117.3575 107° East 152 175 5,000  Descending Los Angeles Center
04:44PM 33.2206 -117.3094 109° East 153 176 5,100 -60 Climbing Los Angeles Center
04:45PM 33.2083 -117.2594 106° East 154 177 4,900 -420 Descending Los Angeles Center
04:46PM 33.2167 -117.1833 83° East 164 189 4,200 -360 Descending Southern California TRACON
04:47PM 33.2167 -117.1333 90° East 148 170 4,100 -60 Descending Southern California TRACON
04:48PM 33.2333 -117.0833 68° East 144 166 4,100 -180 Level Southern California TRACON
04:49PM 33.2000 -117.0667 157° South 138 159 3,800 -420 Descending Southern California TRACON
04:50PM 33.1667 -117.0833 203° Southwest 129 148 3,300 -240 Descending Southern California TRACON
04:51PM 33.1500 -117.1167 239° Southwest 111 128 3,400 -360 Climbing Southern California TRACON
04:52PM 33.1500 -117.1500 270° West 116 133 2,700 -720 Descending Southern California TRACON
04:53PM 33.1500 -117.1833 270° West 118 136 2,000 -720 Descending Southern California TRACON
04:54PM 33.1333 -117.2333 248° West 110 127 1,300 -600 Descending Southern California TRACON
04:55PM 33.1333 -117.2500 270° West 85 98 800 -540 Descending Southern California TRACON